Time;durP1;ratioP1;P1;durP2;ratioP2;P2;SDS_P1;SDS_P2;PMS_P1;PMS_P2;Temp;Humidity;BMP_temperature;BMP_pressure;BME280_temperature;BME280_humidity;BME280_pressure;Samples;Min_cycle;Max_cycle;Signal;HPM_P1;HPM_P2
2022/08/04 00:02:10;;;;;;;7.83;3.00;;;;;;;;;;5073143;28;20510;-64
2022/08/04 00:04:44;;;;;;;7.10;2.70;;;;;;;;;;5073150;28;20438;-64
2022/08/04 00:07:14;;;;;;;8.93;3.40;;;;;;;;;;5073449;28;20454;-64
2022/08/04 00:09:45;;;;;;;5.70;3.37;;;;;;;;;;5072883;28;21000;-64
2022/08/04 00:12:13;;;;;;;13.90;4.00;;;;;;;;;;5073066;28;20442;-64
2022/08/04 00:14:47;;;;;;;6.47;3.10;;;;;;;;;;5072977;28;20534;-64
2022/08/04 00:17:15;;;;;;;5.90;3.07;;;;;;;;;;5073319;28;20899;-64
2022/08/04 00:19:44;;;;;;;11.93;3.63;;;;;;;;;;5072607;28;20444;-64
2022/08/04 00:22:12;;;;;;;6.30;3.37;;;;;;;;;;5072952;28;20572;-64
2022/08/04 00:24:40;;;;;;;4.90;2.80;;;;;;;;;;5072449;28;21046;-64
2022/08/04 00:27:09;;;;;;;6.40;3.00;;;;;;;;;;5072956;28;20540;-64
2022/08/04 00:29:38;;;;;;;11.50;5.13;;;;;;;;;;5072826;28;20533;-64
2022/08/04 00:32:07;;;;;;;8.20;3.27;;;;;;;;;;5072966;28;20810;-64
2022/08/04 00:34:34;;;;;;;10.90;3.67;;;;;;;;;;5074140;28;20524;-64
2022/08/04 00:37:01;;;;;;;9.97;3.47;;;;;;;;;;5076231;28;20445;-64
2022/08/04 00:39:30;;;;;;;4.60;3.40;;;;;;;;;;5076429;28;20438;-63
2022/08/04 00:42:15;;;;;;;5.90;2.60;;;;;;;;;;5076820;28;20823;-63
2022/08/04 00:44:50;;;;;;;4.87;3.20;;;;;;;;;;5066371;28;20524;-64
2022/08/04 00:47:25;;;;;;;11.30;3.00;;;;;;;;;;5076102;28;20532;-63
2022/08/04 00:50:03;;;;;;;9.00;3.30;;;;;;;;;;5076318;28;20426;-64
2022/08/04 00:52:36;;;;;;;16.70;4.00;;;;;;;;;;5076886;28;20516;-63
2022/08/04 00:55:06;;;;;;;11.30;3.87;;;;;;;;;;5076594;28;20460;-64
2022/08/04 00:57:41;;;;;;;8.80;3.73;;;;;;;;;;5076162;28;20432;-64
2022/08/04 01:00:12;;;;;;;8.70;3.60;;;;;;;;;;5075790;28;20455;-64
2022/08/04 01:02:43;;;;;;;8.40;3.47;;;;;;;;;;5075698;28;20555;-64
2022/08/04 01:05:15;;;;;;;8.90;3.13;;;;;;;;;;5075545;28;20523;-64
2022/08/04 01:08:00;;;;;;;5.07;3.43;;;;;;;;;;5075733;28;20525;-64
2022/08/04 01:10:33;;;;;;;9.30;4.27;;;;;;;;;;5065648;28;20458;-64
2022/08/04 01:13:08;;;;;;;6.27;3.50;;;;;;;;;;5075675;28;20972;-64
2022/08/04 01:15:40;;;;;;;5.67;3.20;;;;;;;;;;5076145;28;20511;-64
2022/08/04 01:18:08;;;;;;;7.57;3.40;;;;;;;;;;5076222;28;20835;-64
2022/08/04 01:20:40;;;;;;;9.07;3.47;;;;;;;;;;5075685;28;20524;-64
2022/08/04 01:23:25;;;;;;;8.50;3.67;;;;;;;;;;5075463;28;20484;-64
2022/08/04 01:26:11;;;;;;;8.97;4.00;;;;;;;;;;5075738;28;20501;-64
2022/08/04 01:28:47;;;;;;;8.43;3.70;;;;;;;;;;5075567;28;20517;-64
2022/08/04 01:31:21;;;;;;;11.00;4.17;;;;;;;;;;5075896;28;20431;-64
2022/08/04 01:33:49;;;;;;;9.20;3.73;;;;;;;;;;5075702;28;20435;-64
2022/08/04 01:36:16;;;;;;;9.43;3.70;;;;;;;;;;5075741;28;20450;-64
2022/08/04 01:38:44;;;;;;;6.00;3.33;;;;;;;;;;5075357;28;20448;-64
2022/08/04 01:41:15;;;;;;;8.63;3.40;;;;;;;;;;5075406;28;20468;-64
2022/08/04 01:43:43;;;;;;;7.13;3.37;;;;;;;;;;5075484;28;20473;-64
2022/08/04 01:46:11;;;;;;;4.90;3.27;;;;;;;;;;5074292;28;20484;-64
2022/08/04 01:48:41;;;;;;;5.43;2.83;;;;;;;;;;5075371;28;20531;-64
2022/08/04 01:51:10;;;;;;;9.73;4.50;;;;;;;;;;5075133;28;20453;-64
2022/08/04 01:53:38;;;;;;;7.43;3.30;;;;;;;;;;5075253;28;20449;-64
2022/08/04 01:56:05;;;;;;;9.60;3.20;;;;;;;;;;5074732;28;20523;-64
2022/08/04 01:58:34;;;;;;;7.30;3.63;;;;;;;;;;5075178;28;20437;-64
2022/08/04 02:01:02;;;;;;;7.93;3.60;;;;;;;;;;5074913;28;20440;-64
2022/08/04 02:03:29;;;;;;;5.37;3.27;;;;;;;;;;5074861;28;20835;-64
2022/08/04 02:06:00;;;;;;;5.50;3.50;;;;;;;;;;5074790;28;20540;-64
2022/08/04 02:08:34;;;;;;;8.97;3.37;;;;;;;;;;5074510;28;20437;-64
2022/08/04 02:11:05;;;;;;;8.03;3.40;;;;;;;;;;5074486;28;20433;-63
2022/08/04 02:13:35;;;;;;;4.10;3.03;;;;;;;;;;5074477;28;20522;-63
2022/08/04 02:16:03;;;;;;;12.70;3.60;;;;;;;;;;5074658;28;20478;-63
2022/08/04 02:18:32;;;;;;;11.40;3.67;;;;;;;;;;5075029;28;20463;-63
2022/08/04 02:21:02;;;;;;;8.13;4.07;;;;;;;;;;5074848;28;20506;-63
2022/08/04 02:23:30;;;;;;;6.47;3.50;;;;;;;;;;5074662;28;20999;-63
2022/08/04 02:26:00;;;;;;;8.83;3.37;;;;;;;;;;5074518;28;20477;-63
2022/08/04 02:28:30;;;;;;;11.30;3.97;;;;;;;;;;5074447;28;20840;-63
2022/08/04 02:31:12;;;;;;;7.33;3.50;;;;;;;;;;5074327;28;20439;-64
2022/08/04 02:33:41;;;;;;;8.10;3.30;;;;;;;;;;5072498;28;20460;-63
2022/08/04 02:36:10;;;;;;;6.53;2.77;;;;;;;;;;5073965;28;20439;-64
2022/08/04 02:38:43;;;;;;;4.97;3.47;;;;;;;;;;5074646;28;20446;-64
2022/08/04 02:41:10;;;;;;;12.77;4.10;;;;;;;;;;5074267;28;20433;-63
2022/08/04 02:43:39;;;;;;;6.80;3.03;;;;;;;;;;5074070;28;20482;-64
2022/08/04 02:46:06;;;;;;;8.47;4.27;;;;;;;;;;5074159;28;20447;-64
2022/08/04 02:48:35;;;;;;;10.57;3.50;;;;;;;;;;5074217;28;20437;-64
2022/08/04 02:51:03;;;;;;;8.90;3.67;;;;;;;;;;5073904;28;20445;-64
2022/08/04 02:53:33;;;;;;;14.97;4.00;;;;;;;;;;5073841;28;20449;-63
2022/08/04 02:56:01;;;;;;;10.37;4.17;;;;;;;;;;5073487;28;20446;-64
2022/08/04 02:58:31;;;;;;;11.77;4.03;;;;;;;;;;5072677;28;20921;-64
2022/08/04 03:00:59;;;;;;;6.30;3.07;;;;;;;;;;5073492;28;20421;-64
2022/08/04 03:03:31;;;;;;;14.50;4.63;;;;;;;;;;5073742;28;20492;-64
2022/08/04 03:06:09;;;;;;;6.73;4.33;;;;;;;;;;5073792;28;20461;-64
2022/08/04 03:08:54;;;;;;;7.40;3.13;;;;;;;;;;5074145;28;20433;-64
2022/08/04 03:11:38;;;;;;;8.53;3.33;;;;;;;;;;5073162;28;20527;-64
2022/08/04 03:14:29;;;;;;;9.97;3.53;;;;;;;;;;5074095;28;20794;-64
2022/08/04 03:17:19;;;;;;;7.57;4.30;;;;;;;;;;5058667;28;20477;-64
2022/08/04 03:19:59;;;;;;;10.13;4.57;;;;;;;;;;5073593;28;20513;-65
2022/08/04 03:22:44;;;;;;;9.97;3.80;;;;;;;;;;5073475;28;20469;-64
2022/08/04 03:25:23;;;;;;;7.63;3.47;;;;;;;;;;5063892;28;20457;-64
2022/08/04 03:28:02;;;;;;;8.57;3.27;;;;;;;;;;5073986;28;20495;-64
2022/08/04 03:30:32;;;;;;;7.70;4.17;;;;;;;;;;5073702;28;20429;-64
2022/08/04 03:33:07;;;;;;;9.20;4.10;;;;;;;;;;5073943;28;20438;-64
2022/08/04 03:35:51;;;;;;;7.80;4.37;;;;;;;;;;5073164;28;20935;-64
2022/08/04 03:38:28;;;;;;;10.83;4.10;;;;;;;;;;5073884;28;20464;-64
2022/08/04 03:41:13;;;;;;;11.90;3.90;;;;;;;;;;5073337;28;20511;-63
2022/08/04 03:43:58;;;;;;;7.63;3.53;;;;;;;;;;5072956;28;20487;-64
2022/08/04 03:46:38;;;;;;;17.10;4.30;;;;;;;;;;5073003;28;20936;-64
2022/08/04 03:49:14;;;;;;;9.60;4.40;;;;;;;;;;5073400;28;20480;-63
2022/08/04 03:54:53;;;;;;;9.90;4.03;;;;;;;;;;5073017;28;20457;-64
2022/08/04 03:57:30;;;;;;;15.93;5.63;;;;;;;;;;5073322;28;20425;-63
2022/08/04 04:00:06;;;;;;;12.87;4.80;;;;;;;;;;5072385;28;20441;-64
2022/08/04 04:02:45;;;;;;;9.77;4.90;;;;;;;;;;5072638;28;20515;-64
2022/08/04 04:05:23;;;;;;;11.43;4.63;;;;;;;;;;5072517;28;20905;-64
2022/08/04 04:08:11;;;;;;;12.60;3.87;;;;;;;;;;5073110;28;20435;-64
2022/08/04 04:10:59;;;;;;;9.60;4.23;;;;;;;;;;5075723;28;20523;-64
2022/08/04 04:13:34;;;;;;;10.87;4.83;;;;;;;;;;5072321;28;20452;-64
2022/08/04 04:16:15;;;;;;;9.43;4.17;;;;;;;;;;5076952;28;20543;-64
2022/08/04 04:19:00;;;;;;;16.23;5.67;;;;;;;;;;5077572;28;20507;-64
2022/08/04 04:21:37;;;;;;;14.03;4.73;;;;;;;;;;5076444;28;20433;-64
2022/08/04 04:24:19;;;;;;;9.37;4.87;;;;;;;;;;5077342;28;20592;-64
2022/08/04 04:26:55;;;;;;;10.00;5.30;;;;;;;;;;5076807;28;20433;-64
2022/08/04 04:29:30;;;;;;;12.83;4.27;;;;;;;;;;5076953;28;20436;-64
2022/08/04 04:32:11;;;;;;;19.60;4.60;;;;;;;;;;5075973;28;20514;-64
2022/08/04 04:34:45;;;;;;;12.70;4.33;;;;;;;;;;5076873;28;20789;-63
2022/08/04 04:37:18;;;;;;;14.13;4.80;;;;;;;;;;5076514;28;20512;-64
2022/08/04 04:39:52;;;;;;;10.43;4.57;;;;;;;;;;5076252;28;20523;-64
2022/08/04 04:42:29;;;;;;;11.17;4.00;;;;;;;;;;5076518;28;20510;-64
2022/08/04 04:45:02;;;;;;;11.13;5.10;;;;;;;;;;5076708;28;20440;-64
2022/08/04 04:47:34;;;;;;;13.13;5.67;;;;;;;;;;5076000;28;20524;-64
2022/08/04 04:50:05;;;;;;;12.60;5.17;;;;;;;;;;5076376;28;20426;-64
2022/08/04 04:52:37;;;;;;;11.67;5.23;;;;;;;;;;5076004;28;20845;-64
2022/08/04 04:55:09;;;;;;;10.33;4.50;;;;;;;;;;5075851;28;20480;-64
2022/08/04 04:57:37;;;;;;;13.33;5.27;;;;;;;;;;5076221;28;20861;-64
2022/08/04 05:00:06;;;;;;;8.20;4.23;;;;;;;;;;5076122;28;20442;-64
2022/08/04 05:02:57;;;;;;;14.67;4.23;;;;;;;;;;5076094;28;20437;-64
2022/08/04 05:05:42;;;;;;;11.23;5.37;;;;;;;;;;5076684;28;20510;-63
2022/08/04 05:08:31;;;;;;;11.63;4.47;;;;;;;;;;5076045;28;20517;-64
2022/08/04 05:11:05;;;;;;;10.23;4.50;;;;;;;;;;5075430;28;20517;-64
2022/08/04 05:13:36;;;;;;;9.80;4.10;;;;;;;;;;5075912;28;20521;-63
2022/08/04 05:16:07;;;;;;;16.60;4.30;;;;;;;;;;5075621;28;20555;-64
2022/08/04 05:18:38;;;;;;;13.73;4.20;;;;;;;;;;5075520;28;20512;-64
2022/08/04 05:21:10;;;;;;;11.70;5.13;;;;;;;;;;5074874;28;20425;-63
2022/08/04 05:23:41;;;;;;;8.53;4.27;;;;;;;;;;5075213;28;20576;-68
2022/08/04 05:26:12;;;;;;;12.83;5.00;;;;;;;;;;5075420;28;20435;-64
2022/08/04 05:28:41;;;;;;;12.13;4.23;;;;;;;;;;5075530;28;20530;-64
2022/08/04 05:31:11;;;;;;;11.13;5.00;;;;;;;;;;5075580;28;20434;-64
2022/08/04 05:33:40;;;;;;;10.17;4.10;;;;;;;;;;5075510;28;20437;-64
2022/08/04 05:36:11;;;;;;;10.40;5.10;;;;;;;;;;5074989;28;21009;-64
2022/08/04 05:38:41;;;;;;;9.50;4.47;;;;;;;;;;5075712;28;20759;-64
2022/08/04 05:41:09;;;;;;;8.80;4.30;;;;;;;;;;5075673;28;20433;-64
2022/08/04 05:43:37;;;;;;;11.43;5.57;;;;;;;;;;5074732;28;20479;-64
2022/08/04 05:46:05;;;;;;;137.83;96.30;;;;;;;;;;5075625;28;20447;-64
2022/08/04 05:48:33;;;;;;;16.77;5.40;;;;;;;;;;5075018;28;20874;-65
2022/08/04 05:51:01;;;;;;;15.40;4.60;;;;;;;;;;5075295;28;20518;-64
2022/08/04 05:53:29;;;;;;;11.63;4.20;;;;;;;;;;5075308;28;20483;-64
2022/08/04 05:55:58;;;;;;;10.93;4.30;;;;;;;;;;5075431;28;20554;-64
2022/08/04 05:58:25;;;;;;;12.00;5.90;;;;;;;;;;5074991;28;20454;-64
2022/08/04 06:00:54;;;;;;;11.10;7.47;;;;;;;;;;5074992;28;20538;-64
2022/08/04 06:03:23;;;;;;;14.13;7.40;;;;;;;;;;5074410;28;20480;-64
2022/08/04 06:05:50;;;;;;;12.00;6.40;;;;;;;;;;5074940;28;20804;-64
2022/08/04 06:08:18;;;;;;;11.77;5.00;;;;;;;;;;5075042;28;20800;-64
2022/08/04 06:10:46;;;;;;;13.07;4.90;;;;;;;;;;5074938;28;20435;-64
2022/08/04 06:13:17;;;;;;;13.43;4.70;;;;;;;;;;5075177;28;20450;-64
2022/08/04 06:15:47;;;;;;;13.13;4.80;;;;;;;;;;5074234;28;20538;-64
2022/08/04 06:18:14;;;;;;;7.20;3.80;;;;;;;;;;5074965;28;20486;-65
2022/08/04 06:20:43;;;;;;;11.00;5.40;;;;;;;;;;5074386;28;20435;-64
2022/08/04 06:23:11;;;;;;;6.33;4.20;;;;;;;;;;5074725;28;20536;-65
2022/08/04 06:25:40;;;;;;;8.03;4.00;;;;;;;;;;5074170;28;20533;-64
2022/08/04 06:28:08;;;;;;;7.83;4.30;;;;;;;;;;5074724;28;20956;-65
2022/08/04 06:30:37;;;;;;;5.73;3.60;;;;;;;;;;5074064;28;20499;-64
2022/08/04 06:33:12;;;;;;;16.03;3.87;;;;;;;;;;5074003;28;20444;-64
2022/08/04 06:35:40;;;;;;;12.10;4.73;;;;;;;;;;5074231;28;20432;-65
2022/08/04 06:38:07;;;;;;;11.17;4.43;;;;;;;;;;5074319;28;20462;-64
2022/08/04 06:40:35;;;;;;;10.83;5.20;;;;;;;;;;5073839;28;20478;-64
2022/08/04 06:43:03;;;;;;;9.60;4.70;;;;;;;;;;5073995;28;20531;-65
2022/08/04 06:45:33;;;;;;;9.03;3.87;;;;;;;;;;5074171;28;21002;-64
2022/08/04 06:48:01;;;;;;;10.60;4.37;;;;;;;;;;5074102;28;20496;-64
2022/08/04 06:50:29;;;;;;;14.17;4.80;;;;;;;;;;5074381;28;20531;-64
2022/08/04 06:52:56;;;;;;;9.57;4.60;;;;;;;;;;5073766;28;20449;-64
2022/08/04 06:55:24;;;;;;;13.17;4.57;;;;;;;;;;5074091;28;20448;-65
2022/08/04 06:57:51;;;;;;;17.13;4.80;;;;;;;;;;5073511;28;20922;-65
2022/08/04 07:00:19;;;;;;;11.30;4.90;;;;;;;;;;5073915;28;20799;-64
2022/08/04 07:02:48;;;;;;;9.23;4.53;;;;;;;;;;5073752;28;20543;-64
2022/08/04 07:05:17;;;;;;;10.50;4.10;;;;;;;;;;5073440;28;20564;-64
2022/08/04 07:07:45;;;;;;;6.53;3.93;;;;;;;;;;5074010;28;20448;-64
2022/08/04 07:10:12;;;;;;;6.60;3.53;;;;;;;;;;5073667;28;20434;-65
2022/08/04 07:12:40;;;;;;;8.70;4.60;;;;;;;;;;5073688;28;20864;-64
2022/08/04 07:15:08;;;;;;;13.13;4.33;;;;;;;;;;5073574;28;20544;-65
2022/08/04 07:17:36;;;;;;;12.00;4.87;;;;;;;;;;5073738;28;20669;-64
2022/08/04 07:20:05;;;;;;;7.13;4.30;;;;;;;;;;5073507;28;20784;-64
2022/08/04 07:22:33;;;;;;;12.23;5.10;;;;;;;;;;5073859;28;20880;-64
2022/08/04 07:25:01;;;;;;;16.40;12.43;;;;;;;;;;5072979;28;20459;-64
2022/08/04 07:27:28;;;;;;;11.10;5.63;;;;;;;;;;5074118;28;20442;-64
2022/08/04 07:29:56;;;;;;;4.87;3.63;;;;;;;;;;5073455;28;20520;-64
2022/08/04 07:32:23;;;;;;;8.63;4.13;;;;;;;;;;5073176;28;20457;-65
2022/08/04 07:34:51;;;;;;;6.87;4.93;;;;;;;;;;5073025;28;20451;-64
2022/08/04 07:37:18;;;;;;;10.73;4.60;;;;;;;;;;5073588;28;20440;-64
2022/08/04 07:39:47;;;;;;;11.50;4.47;;;;;;;;;;5073310;28;20519;-64
2022/08/04 07:42:15;;;;;;;5.27;3.97;;;;;;;;;;5073382;28;20414;-64
2022/08/04 07:44:45;;;;;;;11.90;4.27;;;;;;;;;;5077087;28;20913;-64
2022/08/04 07:47:12;;;;;;;9.77;4.23;;;;;;;;;;5080444;28;20424;-64
2022/08/04 07:49:41;;;;;;;12.10;4.60;;;;;;;;;;5079930;28;20437;-64
2022/08/04 07:52:09;;;;;;;9.23;4.10;;;;;;;;;;5079953;28;20512;-64
2022/08/04 07:54:36;;;;;;;4.50;3.63;;;;;;;;;;5080281;28;20458;-64
2022/08/04 07:57:05;;;;;;;5.20;4.37;;;;;;;;;;5079962;28;20446;-64
2022/08/04 07:59:33;;;;;;;8.77;4.17;;;;;;;;;;5079427;28;20515;-64
2022/08/04 08:02:01;;;;;;;10.00;4.50;;;;;;;;;;5079559;28;20516;-64
2022/08/04 08:04:29;;;;;;;7.03;3.93;;;;;;;;;;5079685;28;20457;-64
2022/08/04 08:06:57;;;;;;;7.17;3.60;;;;;;;;;;5079818;28;20885;-64
2022/08/04 08:09:25;;;;;;;5.07;3.73;;;;;;;;;;5079877;28;20525;-65
2022/08/04 08:11:53;;;;;;;4.37;3.57;;;;;;;;;;5079498;28;20457;-64
2022/08/04 08:14:21;;;;;;;7.73;4.00;;;;;;;;;;5079153;28;20525;-65
2022/08/04 08:16:49;;;;;;;5.30;3.50;;;;;;;;;;5079266;28;20520;-65
2022/08/04 08:19:16;;;;;;;6.00;4.30;;;;;;;;;;5079381;28;20442;-64
2022/08/04 08:21:47;;;;;;;4.63;3.23;;;;;;;;;;5080074;28;20441;-64
2022/08/04 08:24:15;;;;;;;6.57;3.50;;;;;;;;;;5079747;28;20457;-64
2022/08/04 08:26:42;;;;;;;13.93;4.03;;;;;;;;;;5079503;28;20428;-65
2022/08/04 08:29:10;;;;;;;7.07;3.60;;;;;;;;;;5079237;28;20531;-65
2022/08/04 08:31:38;;;;;;;8.60;3.83;;;;;;;;;;5079631;28;20437;-65
2022/08/04 08:34:06;;;;;;;9.50;3.77;;;;;;;;;;5079355;28;20449;-65
2022/08/04 08:36:36;;;;;;;10.93;3.80;;;;;;;;;;5079529;28;20549;-64
2022/08/04 08:39:06;;;;;;;10.97;4.90;;;;;;;;;;5079451;28;20409;-64
2022/08/04 08:41:48;;;;;;;7.40;3.47;;;;;;;;;;5079885;28;20419;-64
2022/08/04 08:44:31;;;;;;;7.60;3.40;;;;;;;;;;5079064;28;20529;-64
2022/08/04 08:47:07;;;;;;;4.67;3.83;;;;;;;;;;5079790;28;20432;-64
2022/08/04 08:49:46;;;;;;;10.03;3.60;;;;;;;;;;5079565;28;20494;-64
2022/08/04 08:52:21;;;;;;;13.40;3.60;;;;;;;;;;5080178;28;20426;-64
2022/08/04 08:54:55;;;;;;;15.20;3.53;;;;;;;;;;5079046;28;20468;-65
2022/08/04 08:57:30;;;;;;;7.87;3.80;;;;;;;;;;5076521;28;20490;-64
2022/08/04 09:00:04;;;;;;;6.40;4.27;;;;;;;;;;5076197;28;20497;-65
2022/08/04 09:02:50;;;;;;;3.90;3.60;;;;;;;;;;5076200;28;20406;-65
2022/08/04 09:05:30;;;;;;;4.20;3.43;;;;;;;;;;5075541;28;20520;-65
2022/08/04 09:08:09;;;;;;;4.80;3.53;;;;;;;;;;5075861;28;20919;-65
2022/08/04 09:10:40;;;;;;;4.03;3.67;;;;;;;;;;5075969;28;20428;-64
2022/08/04 09:13:11;;;;;;;3.43;3.13;;;;;;;;;;5076051;28;20436;-64
2022/08/04 09:15:42;;;;;;;6.73;3.80;;;;;;;;;;5075671;28;20404;-64
2022/08/04 09:18:12;;;;;;;7.00;3.77;;;;;;;;;;5075931;28;20910;-64
2022/08/04 09:20:46;;;;;;;7.30;4.60;;;;;;;;;;5075768;28;20443;-64
2022/08/04 09:23:17;;;;;;;14.03;4.20;;;;;;;;;;5075696;28;20422;-64
2022/08/04 09:25:49;;;;;;;18.50;4.10;;;;;;;;;;5075866;28;20470;-65
2022/08/04 09:28:21;;;;;;;6.00;3.50;;;;;;;;;;5076066;28;20434;-64
2022/08/04 09:30:52;;;;;;;5.33;3.73;;;;;;;;;;5075383;28;20525;-64
2022/08/04 09:33:24;;;;;;;4.43;3.20;;;;;;;;;;5075403;28;20920;-64
2022/08/04 09:35:57;;;;;;;5.90;3.70;;;;;;;;;;5075493;28;20482;-65
2022/08/04 09:38:29;;;;;;;6.03;3.37;;;;;;;;;;5075355;28;20984;-65
2022/08/04 09:41:02;;;;;;;5.73;3.67;;;;;;;;;;5075884;28;20416;-65
2022/08/04 09:43:33;;;;;;;4.07;3.53;;;;;;;;;;5075504;28;20522;-64
2022/08/04 09:46:04;;;;;;;7.20;3.80;;;;;;;;;;5074985;28;20964;-64
2022/08/04 09:48:35;;;;;;;5.73;3.10;;;;;;;;;;5075384;28;20447;-64
2022/08/04 09:51:07;;;;;;;4.10;3.70;;;;;;;;;;5075513;28;20521;-65
2022/08/04 09:53:43;;;;;;;4.00;3.47;;;;;;;;;;5076061;28;20450;-64
2022/08/04 09:56:16;;;;;;;5.73;4.00;;;;;;;;;;5075336;28;20405;-65
2022/08/04 09:58:50;;;;;;;5.23;3.90;;;;;;;;;;5075736;28;20428;-65
2022/08/04 10:01:19;;;;;;;6.07;3.70;;;;;;;;;;5075153;28;20553;-65
2022/08/04 10:03:50;;;;;;;3.93;3.47;;;;;;;;;;5075080;28;20773;-64
2022/08/04 10:06:34;;;;;;;6.63;3.80;;;;;;;;;;5074886;28;20534;-65
2022/08/04 10:09:09;;;;;;;4.27;3.50;;;;;;;;;;5074844;28;20436;-64
2022/08/04 10:11:47;;;;;;;4.10;3.70;;;;;;;;;;5074451;28;20927;-65
2022/08/04 10:14:24;;;;;;;6.40;3.40;;;;;;;;;;5075232;28;20460;-65
2022/08/04 10:16:58;;;;;;;8.60;3.80;;;;;;;;;;5074715;28;20557;-65
2022/08/04 10:19:27;;;;;;;8.10;3.80;;;;;;;;;;5075040;28;20427;-65
2022/08/04 10:22:02;;;;;;;4.40;4.00;;;;;;;;;;5074249;28;20444;-65
2022/08/04 10:24:33;;;;;;;3.90;3.60;;;;;;;;;;5074779;28;20945;-64
2022/08/04 10:27:02;;;;;;;3.40;3.10;;;;;;;;;;5074592;28;20435;-65
2022/08/04 10:29:31;;;;;;;4.90;4.00;;;;;;;;;;5074159;28;20440;-64
2022/08/04 10:32:01;;;;;;;3.60;3.10;;;;;;;;;;5074341;28;20439;-65
2022/08/04 10:34:30;;;;;;;3.57;3.00;;;;;;;;;;5074098;28;20434;-65
2022/08/04 10:37:01;;;;;;;4.37;3.10;;;;;;;;;;5073893;28;20486;-65
2022/08/04 10:39:33;;;;;;;5.10;3.23;;;;;;;;;;5074000;28;20477;-64
2022/08/04 10:42:06;;;;;;;3.60;3.30;;;;;;;;;;5074418;28;20465;-64
2022/08/04 10:44:38;;;;;;;6.13;3.63;;;;;;;;;;5074370;28;20797;-64
2022/08/04 10:47:08;;;;;;;4.50;3.73;;;;;;;;;;5073811;28;20460;-65
2022/08/04 10:49:37;;;;;;;3.53;3.23;;;;;;;;;;5074148;28;20820;-64
2022/08/04 10:52:09;;;;;;;7.60;3.80;;;;;;;;;;5074285;28;20443;-65
2022/08/04 10:54:43;;;;;;;12.50;3.43;;;;;;;;;;5073674;28;20460;-64
2022/08/04 10:57:13;;;;;;;4.67;3.10;;;;;;;;;;5073810;28;20515;-65
2022/08/04 10:59:43;;;;;;;4.93;3.70;;;;;;;;;;5073897;28;20549;-64
2022/08/04 11:02:19;;;;;;;7.73;3.83;;;;;;;;;;5073770;28;20446;-65
2022/08/04 11:04:48;;;;;;;5.00;3.87;;;;;;;;;;5074457;28;20471;-64
2022/08/04 11:07:17;;;;;;;9.53;3.00;;;;;;;;;;5074014;28;20541;-65
2022/08/04 11:09:45;;;;;;;5.73;3.20;;;;;;;;;;5073437;28;20531;-65
2022/08/04 11:12:15;;;;;;;3.83;3.50;;;;;;;;;;5073293;28;20477;-65
2022/08/04 11:14:47;;;;;;;9.27;3.90;;;;;;;;;;5073739;28;20441;-65
2022/08/04 11:17:17;;;;;;;7.70;3.50;;;;;;;;;;5074068;28;20564;-65
2022/08/04 11:19:47;;;;;;;6.17;3.27;;;;;;;;;;5072996;28;20429;-64
2022/08/04 11:22:23;;;;;;;6.77;3.43;;;;;;;;;;5073321;28;20431;-65
2022/08/04 11:24:53;;;;;;;6.47;2.77;;;;;;;;;;5073874;28;20538;-65
2022/08/04 11:27:31;;;;;;;6.87;3.57;;;;;;;;;;5073531;28;20485;-65
2022/08/04 11:30:02;;;;;;;6.03;2.60;;;;;;;;;;5073983;28;20505;-65
2022/08/04 11:32:35;;;;;;;6.20;3.57;;;;;;;;;;5073717;28;20458;-64
2022/08/04 11:35:04;;;;;;;3.50;3.17;;;;;;;;;;5073270;28;20523;-64
2022/08/04 11:37:42;;;;;;;8.37;3.50;;;;;;;;;;5073575;28;20525;-65
2022/08/04 11:40:12;;;;;;;9.37;2.90;;;;;;;;;;5074019;28;20426;-64
2022/08/04 11:42:40;;;;;;;5.90;3.67;;;;;;;;;;5073876;28;20538;-65
2022/08/04 11:45:08;;;;;;;3.80;3.00;;;;;;;;;;5073381;28;20820;-65
2022/08/04 11:47:38;;;;;;;5.40;3.53;;;;;;;;;;5072956;28;20452;-65
2022/08/04 11:50:08;;;;;;;9.23;3.33;;;;;;;;;;5073134;28;20434;-65
2022/08/04 11:52:39;;;;;;;5.87;3.47;;;;;;;;;;5072992;28;20468;-65
2022/08/04 11:55:10;;;;;;;4.10;3.23;;;;;;;;;;5073974;28;20444;-65
2022/08/04 11:57:37;;;;;;;5.67;2.67;;;;;;;;;;5073529;28;20417;-65
2022/08/04 12:00:09;;;;;;;5.50;3.33;;;;;;;;;;5073372;28;20499;-65
2022/08/04 12:02:57;;;;;;;5.57;3.03;;;;;;;;;;5072872;28;20469;-65
2022/08/04 12:05:28;;;;;;;3.90;3.50;;;;;;;;;;5073029;28;20487;-65
2022/08/04 12:08:01;;;;;;;5.70;3.93;;;;;;;;;;5073189;28;20960;-65
2022/08/04 12:10:37;;;;;;;5.10;2.97;;;;;;;;;;5073013;28;20454;-65
2022/08/04 12:13:08;;;;;;;4.50;3.00;;;;;;;;;;5073015;28;20428;-65
2022/08/04 12:15:38;;;;;;;3.97;3.20;;;;;;;;;;5073106;28;20534;-65
2022/08/04 12:18:08;;;;;;;3.73;2.83;;;;;;;;;;5072743;28;20913;-65
2022/08/04 12:20:40;;;;;;;6.20;3.13;;;;;;;;;;5072848;28;20421;-65
2022/08/04 12:23:13;;;;;;;6.77;3.30;;;;;;;;;;5072574;28;21006;-65
2022/08/04 12:25:42;;;;;;;6.63;3.60;;;;;;;;;;5072629;28;20472;-65
2022/08/04 12:28:14;;;;;;;3.97;3.60;;;;;;;;;;5072573;28;20527;-64
2022/08/04 12:30:43;;;;;;;5.40;3.90;;;;;;;;;;5074836;28;20494;-64
2022/08/04 12:33:13;;;;;;;3.73;3.00;;;;;;;;;;5076545;28;20444;-64
2022/08/04 12:35:44;;;;;;;5.13;2.90;;;;;;;;;;5076550;28;20526;-64
2022/08/04 12:38:14;;;;;;;12.33;3.40;;;;;;;;;;5076130;28;20434;-64
2022/08/04 12:40:42;;;;;;;6.10;3.40;;;;;;;;;;5076427;28;20444;-64
2022/08/04 12:43:12;;;;;;;4.30;3.10;;;;;;;;;;5076923;28;20864;-64
2022/08/04 12:45:43;;;;;;;6.30;3.10;;;;;;;;;;5076068;28;20480;-64
2022/08/04 12:48:11;;;;;;;3.83;3.30;;;;;;;;;;5076482;28;20443;-64
2022/08/04 12:50:39;;;;;;;3.67;2.90;;;;;;;;;;5076383;28;20483;-64
2022/08/04 12:53:12;;;;;;;7.17;2.90;;;;;;;;;;5075747;28;20468;-64
2022/08/04 12:55:46;;;;;;;5.53;3.03;;;;;;;;;;5076336;28;20437;-66
2022/08/04 12:58:16;;;;;;;4.40;3.37;;;;;;;;;;5075841;28;20512;-66
2022/08/04 13:00:45;;;;;;;7.00;3.00;;;;;;;;;;5077019;28;20454;-65
2022/08/04 13:03:13;;;;;;;7.33;3.23;;;;;;;;;;5075701;28;20483;-64
2022/08/04 13:05:41;;;;;;;10.67;3.70;;;;;;;;;;5076057;28;21242;-63
2022/08/04 13:08:09;;;;;;;13.70;3.60;;;;;;;;;;5075841;28;20463;-63
2022/08/04 13:10:38;;;;;;;5.30;3.43;;;;;;;;;;5075638;28;20449;-63
2022/08/04 13:13:12;;;;;;;7.53;3.80;;;;;;;;;;5075500;28;20449;-64
2022/08/04 13:15:39;;;;;;;5.37;3.67;;;;;;;;;;5075467;28;20518;-64
2022/08/04 13:18:09;;;;;;;4.00;3.70;;;;;;;;;;5076041;28;20856;-64
2022/08/04 13:20:36;;;;;;;5.50;3.90;;;;;;;;;;5075393;28;20581;-63
2022/08/04 13:23:07;;;;;;;11.40;4.00;;;;;;;;;;5074894;28;20434;-64
2022/08/04 13:25:38;;;;;;;6.53;3.60;;;;;;;;;;5074683;28;20479;-64
2022/08/04 13:28:09;;;;;;;7.20;4.03;;;;;;;;;;5075024;28;20402;-64
2022/08/04 13:30:36;;;;;;;8.50;4.00;;;;;;;;;;5075312;28;20434;-64
2022/08/04 13:33:05;;;;;;;5.93;4.03;;;;;;;;;;5075117;28;20556;-64
2022/08/04 13:35:34;;;;;;;6.13;5.00;;;;;;;;;;5075218;28;20840;-64
2022/08/04 13:38:02;;;;;;;7.50;4.40;;;;;;;;;;5075333;28;20475;-65
2022/08/04 13:40:29;;;;;;;8.10;4.77;;;;;;;;;;5075824;28;20490;-64
2022/08/04 13:42:57;;;;;;;5.70;4.30;;;;;;;;;;5074369;28;20473;-65
2022/08/04 13:45:26;;;;;;;9.30;4.50;;;;;;;;;;5075525;28;20409;-64
2022/08/04 13:47:58;;;;;;;10.77;5.00;;;;;;;;;;5075307;28;20458;-64
2022/08/04 13:50:28;;;;;;;6.33;4.33;;;;;;;;;;5075460;28;20494;-64
2022/08/04 13:52:56;;;;;;;12.80;5.10;;;;;;;;;;5075682;28;20499;-65
2022/08/04 13:55:25;;;;;;;7.10;4.70;;;;;;;;;;5073572;28;20444;-64
2022/08/04 13:57:55;;;;;;;5.80;4.10;;;;;;;;;;5074646;28;20448;-65
2022/08/04 14:00:23;;;;;;;8.27;4.80;;;;;;;;;;5074738;28;20504;-64
2022/08/04 14:02:59;;;;;;;6.07;4.60;;;;;;;;;;5074623;28;20478;-65
2022/08/04 14:05:27;;;;;;;6.07;4.83;;;;;;;;;;5074608;28;20487;-64
2022/08/04 14:07:55;;;;;;;10.80;5.37;;;;;;;;;;5074747;28;20516;-65
2022/08/04 14:10:23;;;;;;;10.63;5.10;;;;;;;;;;5074250;28;20421;-65
2022/08/04 14:12:52;;;;;;;7.27;4.67;;;;;;;;;;5074263;28;20421;-65
2022/08/04 14:15:35;;;;;;;16.67;5.50;;;;;;;;;;5074162;28;20551;-65
2022/08/04 14:18:21;;;;;;;8.90;5.23;;;;;;;;;;5074237;28;20563;-65
2022/08/04 14:21:08;;;;;;;5.77;4.07;;;;;;;;;;5074203;28;20514;-65
2022/08/04 14:23:39;;;;;;;11.13;5.07;;;;;;;;;;5074030;28;20461;-65
2022/08/04 14:26:20;;;;;;;10.60;4.97;;;;;;;;;;5074299;28;20482;-65
2022/08/04 14:28:48;;;;;;;15.33;4.53;;;;;;;;;;5074389;28;20462;-65
2022/08/04 14:31:15;;;;;;;9.37;4.93;;;;;;;;;;5074109;28;20941;-65
2022/08/04 14:33:45;;;;;;;10.63;4.57;;;;;;;;;;5073966;28;20940;-64
2022/08/04 14:36:13;;;;;;;8.97;4.13;;;;;;;;;;5074377;28;20826;-64
2022/08/04 14:38:44;;;;;;;9.30;5.50;;;;;;;;;;5074242;28;20472;-65
2022/08/04 14:41:12;;;;;;;18.53;5.80;;;;;;;;;;5073950;28;20417;-64
2022/08/04 14:43:44;;;;;;;12.90;4.63;;;;;;;;;;5073986;28;20445;-65
2022/08/04 14:46:12;;;;;;;4.83;3.70;;;;;;;;;;5073984;28;20476;-64
2022/08/04 14:48:39;;;;;;;4.63;3.70;;;;;;;;;;5074098;28;20445;-63
2022/08/04 14:51:13;;;;;;;5.37;3.90;;;;;;;;;;5074083;28;20449;-64
2022/08/04 14:53:41;;;;;;;5.40;3.40;;;;;;;;;;5073364;28;20459;-64
2022/08/04 14:56:09;;;;;;;8.67;3.87;;;;;;;;;;5073275;28;20968;-64
2022/08/04 14:58:36;;;;;;;6.67;4.10;;;;;;;;;;5073853;28;20453;-64
2022/08/04 15:01:04;;;;;;;6.83;3.57;;;;;;;;;;5073332;28;20454;-64
2022/08/04 15:03:32;;;;;;;6.27;3.90;;;;;;;;;;5073017;28;20466;-64
2022/08/04 15:06:00;;;;;;;11.87;3.80;;;;;;;;;;5072996;28;20436;-64
2022/08/04 15:08:29;;;;;;;4.80;3.30;;;;;;;;;;5074049;28;20485;-64